sensor_id;sensor_type;location;lat;lon;timestamp;P1;durP1;ratioP1;P2;durP2;ratioP2
15142;SDS011;7672;50.834;6.286;2023-05-08T00:02:05;18.33;;;16.73;;
15142;SDS011;7672;50.834;6.286;2023-05-08T00:04:31;18.70;;;16.80;;
15142;SDS011;7672;50.834;6.286;2023-05-08T00:06:58;18.83;;;17.03;;
15142;SDS011;7672;50.834;6.286;2023-05-08T00:09:26;18.17;;;16.57;;
15142;SDS011;7672;50.834;6.286;2023-05-08T00:11:52;19.07;;;17.23;;
15142;SDS011;7672;50.834;6.286;2023-05-08T00:14:19;18.80;;;16.97;;
15142;SDS011;7672;50.834;6.286;2023-05-08T00:16:46;19.53;;;17.73;;
15142;SDS011;7672;50.834;6.286;2023-05-08T00:19:13;19.90;;;18.10;;
15142;SDS011;7672;50.834;6.286;2023-05-08T00:21:40;19.73;;;18.03;;
15142;SDS011;7672;50.834;6.286;2023-05-08T00:24:07;18.87;;;17.37;;
15142;SDS011;7672;50.834;6.286;2023-05-08T00:26:34;18.33;;;16.60;;
15142;SDS011;7672;50.834;6.286;2023-05-08T00:29:01;19.93;;;18.10;;
15142;SDS011;7672;50.834;6.286;2023-05-08T00:31:31;18.37;;;16.87;;
15142;SDS011;7672;50.834;6.286;2023-05-08T00:33:59;19.53;;;17.73;;
15142;SDS011;7672;50.834;6.286;2023-05-08T00:36:26;19.63;;;17.93;;
15142;SDS011;7672;50.834;6.286;2023-05-08T00:38:53;19.83;;;17.87;;
15142;SDS011;7672;50.834;6.286;2023-05-08T00:41:20;18.33;;;16.40;;
15142;SDS011;7672;50.834;6.286;2023-05-08T00:43:47;19.97;;;18.07;;
15142;SDS011;7672;50.834;6.286;2023-05-08T00:46:14;18.93;;;17.33;;
15142;SDS011;7672;50.834;6.286;2023-05-08T00:48:42;17.57;;;15.47;;
15142;SDS011;7672;50.834;6.286;2023-05-08T00:51:11;20.07;;;18.47;;
15142;SDS011;7672;50.834;6.286;2023-05-08T00:53:40;18.37;;;16.67;;
15142;SDS011;7672;50.834;6.286;2023-05-08T00:56:11;19.27;;;17.63;;
15142;SDS011;7672;50.834;6.286;2023-05-08T00:58:40;20.73;;;18.87;;
15142;SDS011;7672;50.834;6.286;2023-05-08T01:01:09;20.93;;;18.83;;
15142;SDS011;7672;50.834;6.286;2023-05-08T01:03:37;20.47;;;18.50;;
15142;SDS011;7672;50.834;6.286;2023-05-08T01:06:05;20.80;;;18.97;;
15142;SDS011;7672;50.834;6.286;2023-05-08T01:08:33;20.03;;;18.23;;
15142;SDS011;7672;50.834;6.286;2023-05-08T01:13:51;19.13;;;17.30;;
15142;SDS011;7672;50.834;6.286;2023-05-08T01:19:51;18.80;;;17.27;;
15142;SDS011;7672;50.834;6.286;2023-05-08T01:25:24;19.53;;;17.63;;
15142;SDS011;7672;50.834;6.286;2023-05-08T01:28:32;17.67;;;16.17;;
15142;SDS011;7672;50.834;6.286;2023-05-08T01:32:07;15.40;;;14.00;;
15142;SDS011;7672;50.834;6.286;2023-05-08T01:37:49;18.90;;;17.30;;
15142;SDS011;7672;50.834;6.286;2023-05-08T01:46:17;15.03;;;13.23;;
15142;SDS011;7672;50.834;6.286;2023-05-08T01:49:33;13.87;;;12.67;;
15142;SDS011;7672;50.834;6.286;2023-05-08T01:52:04;14.83;;;13.43;;
15142;SDS011;7672;50.834;6.286;2023-05-08T01:54:41;16.57;;;15.17;;
15142;SDS011;7672;50.834;6.286;2023-05-08T01:57:26;16.80;;;15.40;;
15142;SDS011;7672;50.834;6.286;2023-05-08T01:59:57;19.73;;;18.03;;
15142;SDS011;7672;50.834;6.286;2023-05-08T02:02:35;21.60;;;19.63;;
15142;SDS011;7672;50.834;6.286;2023-05-08T02:05:03;23.87;;;21.43;;
15142;SDS011;7672;50.834;6.286;2023-05-08T02:07:33;22.03;;;20.03;;
15142;SDS011;7672;50.834;6.286;2023-05-08T02:10:05;22.67;;;20.23;;
15142;SDS011;7672;50.834;6.286;2023-05-08T02:12:33;22.40;;;20.30;;
15142;SDS011;7672;50.834;6.286;2023-05-08T02:15:04;22.47;;;20.43;;
15142;SDS011;7672;50.834;6.286;2023-05-08T02:17:35;22.80;;;20.70;;
15142;SDS011;7672;50.834;6.286;2023-05-08T02:20:06;22.77;;;20.63;;
15142;SDS011;7672;50.834;6.286;2023-05-08T02:22:40;22.10;;;20.20;;
15142;SDS011;7672;50.834;6.286;2023-05-08T02:25:11;23.60;;;21.37;;
15142;SDS011;7672;50.834;6.286;2023-05-08T02:27:41;21.97;;;20.07;;
15142;SDS011;7672;50.834;6.286;2023-05-08T02:30:15;19.67;;;17.93;;
15142;SDS011;7672;50.834;6.286;2023-05-08T02:32:44;20.47;;;18.63;;
15142;SDS011;7672;50.834;6.286;2023-05-08T02:35:15;21.77;;;19.70;;
15142;SDS011;7672;50.834;6.286;2023-05-08T02:37:50;21.67;;;19.77;;
15142;SDS011;7672;50.834;6.286;2023-05-08T02:40:21;21.97;;;19.97;;
15142;SDS011;7672;50.834;6.286;2023-05-08T02:42:54;22.33;;;20.33;;
15142;SDS011;7672;50.834;6.286;2023-05-08T02:45:22;22.23;;;20.07;;
15142;SDS011;7672;50.834;6.286;2023-05-08T02:48:07;21.60;;;19.60;;
15142;SDS011;7672;50.834;6.286;2023-05-08T02:53:44;21.37;;;19.07;;
15142;SDS011;7672;50.834;6.286;2023-05-08T02:56:22;19.57;;;17.87;;
15142;SDS011;7672;50.834;6.286;2023-05-08T02:59:21;19.70;;;17.80;;
15142;SDS011;7672;50.834;6.286;2023-05-08T03:02:36;19.67;;;17.70;;
15142;SDS011;7672;50.834;6.286;2023-05-08T03:05:11;20.63;;;18.73;;
15142;SDS011;7672;50.834;6.286;2023-05-08T03:07:44;19.13;;;17.50;;
15142;SDS011;7672;50.834;6.286;2023-05-08T03:10:17;20.27;;;18.43;;
15142;SDS011;7672;50.834;6.286;2023-05-08T03:12:50;21.27;;;19.27;;
15142;SDS011;7672;50.834;6.286;2023-05-08T03:15:24;20.60;;;18.87;;
15142;SDS011;7672;50.834;6.286;2023-05-08T03:17:54;22.23;;;19.93;;
15142;SDS011;7672;50.834;6.286;2023-05-08T03:20:29;19.73;;;17.93;;
15142;SDS011;7672;50.834;6.286;2023-05-08T03:23:10;18.90;;;17.03;;
15142;SDS011;7672;50.834;6.286;2023-05-08T03:25:41;20.30;;;16.83;;
15142;SDS011;7672;50.834;6.286;2023-05-08T03:28:10;19.17;;;17.37;;
15142;SDS011;7672;50.834;6.286;2023-05-08T03:30:40;17.60;;;16.10;;
15142;SDS011;7672;50.834;6.286;2023-05-08T03:33:11;18.90;;;16.77;;
15142;SDS011;7672;50.834;6.286;2023-05-08T03:35:39;18.53;;;16.80;;
15142;SDS011;7672;50.834;6.286;2023-05-08T03:38:08;19.87;;;18.07;;
15142;SDS011;7672;50.834;6.286;2023-05-08T03:40:36;19.80;;;17.90;;
15142;SDS011;7672;50.834;6.286;2023-05-08T03:43:05;20.57;;;18.63;;
15142;SDS011;7672;50.834;6.286;2023-05-08T03:45:38;22.13;;;18.73;;
15142;SDS011;7672;50.834;6.286;2023-05-08T03:48:07;21.40;;;19.50;;
15142;SDS011;7672;50.834;6.286;2023-05-08T03:50:36;21.33;;;19.07;;
15142;SDS011;7672;50.834;6.286;2023-05-08T03:53:06;21.63;;;19.27;;
15142;SDS011;7672;50.834;6.286;2023-05-08T03:55:34;20.30;;;18.37;;
15142;SDS011;7672;50.834;6.286;2023-05-08T03:58:07;21.17;;;18.83;;
15142;SDS011;7672;50.834;6.286;2023-05-08T04:01:00;21.20;;;19.20;;
15142;SDS011;7672;50.834;6.286;2023-05-08T04:04:03;22.83;;;20.63;;
15142;SDS011;7672;50.834;6.286;2023-05-08T04:06:58;21.43;;;19.53;;
15142;SDS011;7672;50.834;6.286;2023-05-08T04:13:13;21.90;;;19.93;;
15142;SDS011;7672;50.834;6.286;2023-05-08T04:15:51;21.33;;;19.53;;
15142;SDS011;7672;50.834;6.286;2023-05-08T04:18:30;19.93;;;17.93;;
15142;SDS011;7672;50.834;6.286;2023-05-08T04:21:07;20.77;;;18.77;;
15142;SDS011;7672;50.834;6.286;2023-05-08T04:23:38;21.80;;;19.70;;
15142;SDS011;7672;50.834;6.286;2023-05-08T04:26:08;21.03;;;19.07;;
15142;SDS011;7672;50.834;6.286;2023-05-08T04:28:41;21.10;;;19.07;;
15142;SDS011;7672;50.834;6.286;2023-05-08T04:31:09;20.80;;;18.80;;
15142;SDS011;7672;50.834;6.286;2023-05-08T04:33:37;20.97;;;18.93;;
15142;SDS011;7672;50.834;6.286;2023-05-08T04:36:05;21.60;;;19.70;;
15142;SDS011;7672;50.834;6.286;2023-05-08T04:38:37;21.97;;;19.67;;
15142;SDS011;7672;50.834;6.286;2023-05-08T04:41:07;21.93;;;19.63;;
15142;SDS011;7672;50.834;6.286;2023-05-08T04:43:34;21.77;;;19.63;;
15142;SDS011;7672;50.834;6.286;2023-05-08T04:46:03;21.53;;;19.53;;
15142;SDS011;7672;50.834;6.286;2023-05-08T04:48:32;21.97;;;19.77;;
15142;SDS011;7672;50.834;6.286;2023-05-08T04:50:59;21.00;;;19.10;;
15142;SDS011;7672;50.834;6.286;2023-05-08T04:53:26;22.93;;;19.17;;
15142;SDS011;7672;50.834;6.286;2023-05-08T04:55:53;19.83;;;17.83;;
15142;SDS011;7672;50.834;6.286;2023-05-08T04:58:21;21.03;;;19.13;;
15142;SDS011;7672;50.834;6.286;2023-05-08T05:00:48;21.43;;;19.43;;
15142;SDS011;7672;50.834;6.286;2023-05-08T05:03:15;23.90;;;20.00;;
15142;SDS011;7672;50.834;6.286;2023-05-08T05:05:42;23.77;;;21.27;;
15142;SDS011;7672;50.834;6.286;2023-05-08T05:08:09;23.90;;;21.53;;
15142;SDS011;7672;50.834;6.286;2023-05-08T05:10:37;22.97;;;20.70;;
15142;SDS011;7672;50.834;6.286;2023-05-08T05:13:05;23.20;;;20.83;;
15142;SDS011;7672;50.834;6.286;2023-05-08T05:15:32;25.77;;;23.20;;
15142;SDS011;7672;50.834;6.286;2023-05-08T05:17:59;25.30;;;22.67;;
15142;SDS011;7672;50.834;6.286;2023-05-08T05:20:26;26.10;;;23.50;;
15142;SDS011;7672;50.834;6.286;2023-05-08T05:22:54;26.80;;;24.07;;
15142;SDS011;7672;50.834;6.286;2023-05-08T05:25:22;25.67;;;23.10;;
15142;SDS011;7672;50.834;6.286;2023-05-08T05:27:49;25.03;;;22.43;;
15142;SDS011;7672;50.834;6.286;2023-05-08T05:30:16;25.53;;;22.83;;
15142;SDS011;7672;50.834;6.286;2023-05-08T05:32:44;25.93;;;23.27;;
15142;SDS011;7672;50.834;6.286;2023-05-08T05:35:11;25.30;;;22.90;;
15142;SDS011;7672;50.834;6.286;2023-05-08T05:37:39;25.90;;;23.33;;
15142;SDS011;7672;50.834;6.286;2023-05-08T05:40:07;26.17;;;23.40;;
15142;SDS011;7672;50.834;6.286;2023-05-08T05:42:36;27.57;;;24.63;;
15142;SDS011;7672;50.834;6.286;2023-05-08T05:45:03;26.93;;;24.13;;
15142;SDS011;7672;50.834;6.286;2023-05-08T05:47:32;27.03;;;24.33;;
15142;SDS011;7672;50.834;6.286;2023-05-08T05:50:00;27.00;;;24.27;;
15142;SDS011;7672;50.834;6.286;2023-05-08T05:52:28;26.30;;;23.67;;
15142;SDS011;7672;50.834;6.286;2023-05-08T05:54:56;28.07;;;25.30;;
15142;SDS011;7672;50.834;6.286;2023-05-08T05:57:23;26.27;;;23.43;;
15142;SDS011;7672;50.834;6.286;2023-05-08T05:59:50;28.20;;;22.57;;
15142;SDS011;7672;50.834;6.286;2023-05-08T06:02:20;28.67;;;25.87;;
15142;SDS011;7672;50.834;6.286;2023-05-08T06:04:47;27.63;;;24.83;;
15142;SDS011;7672;50.834;6.286;2023-05-08T06:07:16;28.83;;;25.93;;
15142;SDS011;7672;50.834;6.286;2023-05-08T06:09:43;29.73;;;26.63;;
15142;SDS011;7672;50.834;6.286;2023-05-08T06:12:11;30.77;;;27.60;;
15142;SDS011;7672;50.834;6.286;2023-05-08T06:14:38;28.97;;;25.93;;
15142;SDS011;7672;50.834;6.286;2023-05-08T06:17:05;31.40;;;28.13;;
15142;SDS011;7672;50.834;6.286;2023-05-08T06:19:32;31.57;;;28.23;;
15142;SDS011;7672;50.834;6.286;2023-05-08T06:21:59;32.20;;;28.87;;
15142;SDS011;7672;50.834;6.286;2023-05-08T06:24:26;31.13;;;26.83;;
15142;SDS011;7672;50.834;6.286;2023-05-08T06:26:53;29.83;;;26.93;;
15142;SDS011;7672;50.834;6.286;2023-05-08T06:29:20;29.03;;;26.03;;
15142;SDS011;7672;50.834;6.286;2023-05-08T06:31:47;29.03;;;26.10;;
15142;SDS011;7672;50.834;6.286;2023-05-08T06:34:14;29.47;;;26.57;;
15142;SDS011;7672;50.834;6.286;2023-05-08T06:36:41;28.30;;;25.63;;
15142;SDS011;7672;50.834;6.286;2023-05-08T06:39:08;29.60;;;26.40;;
15142;SDS011;7672;50.834;6.286;2023-05-08T06:41:35;28.30;;;25.70;;
15142;SDS011;7672;50.834;6.286;2023-05-08T06:44:02;28.57;;;25.87;;
15142;SDS011;7672;50.834;6.286;2023-05-08T06:46:30;26.67;;;24.20;;
15142;SDS011;7672;50.834;6.286;2023-05-08T06:48:57;28.23;;;25.13;;
15142;SDS011;7672;50.834;6.286;2023-05-08T06:51:24;26.73;;;24.23;;
15142;SDS011;7672;50.834;6.286;2023-05-08T06:53:51;25.90;;;23.57;;
15142;SDS011;7672;50.834;6.286;2023-05-08T06:56:18;25.37;;;23.07;;
15142;SDS011;7672;50.834;6.286;2023-05-08T06:58:45;24.47;;;22.00;;
15142;SDS011;7672;50.834;6.286;2023-05-08T07:01:30;24.97;;;22.57;;
15142;SDS011;7672;50.834;6.286;2023-05-08T07:03:57;24.30;;;22.00;;
15142;SDS011;7672;50.834;6.286;2023-05-08T07:06:24;25.10;;;22.50;;
15142;SDS011;7672;50.834;6.286;2023-05-08T07:08:52;25.77;;;23.17;;
15142;SDS011;7672;50.834;6.286;2023-05-08T07:11:19;24.90;;;22.50;;
15142;SDS011;7672;50.834;6.286;2023-05-08T07:13:47;23.93;;;21.93;;
15142;SDS011;7672;50.834;6.286;2023-05-08T07:16:14;25.02;;;22.67;;
15142;SDS011;7672;50.834;6.286;2023-05-08T07:18:41;26.20;;;23.63;;
15142;SDS011;7672;50.834;6.286;2023-05-08T07:21:09;24.13;;;21.92;;
15142;SDS011;7672;50.834;6.286;2023-05-08T07:23:36;25.90;;;23.45;;
15142;SDS011;7672;50.834;6.286;2023-05-08T07:26:03;24.80;;;22.47;;
15142;SDS011;7672;50.834;6.286;2023-05-08T07:28:30;25.03;;;22.73;;
15142;SDS011;7672;50.834;6.286;2023-05-08T07:30:57;25.38;;;22.98;;
15142;SDS011;7672;50.834;6.286;2023-05-08T07:33:24;24.93;;;22.70;;
15142;SDS011;7672;50.834;6.286;2023-05-08T07:35:52;26.73;;;24.03;;
15142;SDS011;7672;50.834;6.286;2023-05-08T07:38:19;26.38;;;23.85;;
15142;SDS011;7672;50.834;6.286;2023-05-08T07:40:45;27.35;;;24.70;;
15142;SDS011;7672;50.834;6.286;2023-05-08T07:43:14;27.55;;;24.77;;
15142;SDS011;7672;50.834;6.286;2023-05-08T07:45:41;27.77;;;25.13;;
15142;SDS011;7672;50.834;6.286;2023-05-08T07:48:08;28.27;;;25.38;;
15142;SDS011;7672;50.834;6.286;2023-05-08T07:50:35;27.67;;;24.98;;
15142;SDS011;7672;50.834;6.286;2023-05-08T07:53:02;28.73;;;26.15;;
15142;SDS011;7672;50.834;6.286;2023-05-08T07:55:30;28.02;;;25.42;;
15142;SDS011;7672;50.834;6.286;2023-05-08T07:57:57;29.15;;;26.27;;
15142;SDS011;7672;50.834;6.286;2023-05-08T08:00:24;27.52;;;25.02;;
15142;SDS011;7672;50.834;6.286;2023-05-08T08:02:52;30.52;;;27.20;;
15142;SDS011;7672;50.834;6.286;2023-05-08T08:05:20;28.85;;;26.20;;
15142;SDS011;7672;50.834;6.286;2023-05-08T08:07:47;30.05;;;27.02;;
15142;SDS011;7672;50.834;6.286;2023-05-08T08:10:14;27.75;;;25.45;;
15142;SDS011;7672;50.834;6.286;2023-05-08T08:12:42;30.13;;;27.63;;
15142;SDS011;7672;50.834;6.286;2023-05-08T08:15:10;28.25;;;25.58;;
15142;SDS011;7672;50.834;6.286;2023-05-08T08:17:38;25.42;;;23.42;;
15142;SDS011;7672;50.834;6.286;2023-05-08T08:20:05;26.35;;;23.88;;
15142;SDS011;7672;50.834;6.286;2023-05-08T08:22:33;26.10;;;23.85;;
15142;SDS011;7672;50.834;6.286;2023-05-08T08:25:01;25.48;;;23.50;;
15142;SDS011;7672;50.834;6.286;2023-05-08T08:27:29;25.95;;;23.92;;
15142;SDS011;7672;50.834;6.286;2023-05-08T08:29:56;25.50;;;23.27;;
15142;SDS011;7672;50.834;6.286;2023-05-08T08:32:42;25.85;;;23.67;;
15142;SDS011;7672;50.834;6.286;2023-05-08T08:35:12;26.65;;;24.10;;
15142;SDS011;7672;50.834;6.286;2023-05-08T08:37:41;26.63;;;24.42;;
15142;SDS011;7672;50.834;6.286;2023-05-08T08:40:08;26.23;;;23.92;;
15142;SDS011;7672;50.834;6.286;2023-05-08T08:42:36;26.00;;;23.88;;
15142;SDS011;7672;50.834;6.286;2023-05-08T08:45:03;25.73;;;23.38;;
15142;SDS011;7672;50.834;6.286;2023-05-08T08:47:35;26.08;;;23.98;;
15142;SDS011;7672;50.834;6.286;2023-05-08T08:50:04;24.98;;;22.98;;
15142;SDS011;7672;50.834;6.286;2023-05-08T08:52:51;25.65;;;23.45;;
15142;SDS011;7672;50.834;6.286;2023-05-08T08:55:22;26.17;;;24.02;;
15142;SDS011;7672;50.834;6.286;2023-05-08T09:01:08;26.33;;;24.08;;
15142;SDS011;7672;50.834;6.286;2023-05-08T09:03:43;25.58;;;23.38;;
15142;SDS011;7672;50.834;6.286;2023-05-08T09:06:14;23.92;;;21.95;;
15142;SDS011;7672;50.834;6.286;2023-05-08T09:08:42;25.52;;;23.35;;
15142;SDS011;7672;50.834;6.286;2023-05-08T09:11:09;24.23;;;22.13;;
15142;SDS011;7672;50.834;6.286;2023-05-08T09:13:36;21.90;;;20.08;;
15142;SDS011;7672;50.834;6.286;2023-05-08T09:16:03;22.17;;;20.17;;
15142;SDS011;7672;50.834;6.286;2023-05-08T09:18:31;23.48;;;21.50;;
15142;SDS011;7672;50.834;6.286;2023-05-08T09:20:58;21.75;;;19.85;;
15142;SDS011;7672;50.834;6.286;2023-05-08T09:23:27;23.13;;;21.27;;
15142;SDS011;7672;50.834;6.286;2023-05-08T09:25:54;23.15;;;21.25;;
15142;SDS011;7672;50.834;6.286;2023-05-08T09:28:23;21.40;;;19.67;;
15142;SDS011;7672;50.834;6.286;2023-05-08T09:33:26;21.27;;;19.63;;
15142;SDS011;7672;50.834;6.286;2023-05-08T09:35:55;19.35;;;17.73;;
15142;SDS011;7672;50.834;6.286;2023-05-08T09:38:36;21.38;;;19.67;;
15142;SDS011;7672;50.834;6.286;2023-05-08T09:41:12;24.38;;;22.27;;
15142;SDS011;7672;50.834;6.286;2023-05-08T09:43:43;21.83;;;19.92;;
15142;SDS011;7672;50.834;6.286;2023-05-08T09:46:25;20.92;;;19.33;;
15142;SDS011;7672;50.834;6.286;2023-05-08T09:48:54;21.33;;;19.60;;
15142;SDS011;7672;50.834;6.286;2023-05-08T09:51:28;20.33;;;18.73;;
15142;SDS011;7672;50.834;6.286;2023-05-08T09:53:58;22.20;;;20.40;;
15142;SDS011;7672;50.834;6.286;2023-05-08T09:56:35;23.05;;;21.00;;
15142;SDS011;7672;50.834;6.286;2023-05-08T09:59:20;21.98;;;20.10;;
15142;SDS011;7672;50.834;6.286;2023-05-08T10:01:56;22.10;;;20.30;;
15142;SDS011;7672;50.834;6.286;2023-05-08T10:04:30;23.73;;;21.65;;
15142;SDS011;7672;50.834;6.286;2023-05-08T10:07:02;23.45;;;21.58;;
15142;SDS011;7672;50.834;6.286;2023-05-08T10:09:30;22.63;;;20.83;;
15142;SDS011;7672;50.834;6.286;2023-05-08T10:12:12;23.23;;;21.13;;
15142;SDS011;7672;50.834;6.286;2023-05-08T10:14:39;23.58;;;21.35;;
15142;SDS011;7672;50.834;6.286;2023-05-08T10:17:09;22.65;;;20.85;;
15142;SDS011;7672;50.834;6.286;2023-05-08T10:19:37;23.27;;;21.38;;
15142;SDS011;7672;50.834;6.286;2023-05-08T10:22:11;22.02;;;20.17;;
15142;SDS011;7672;50.834;6.286;2023-05-08T10:24:41;22.40;;;20.50;;
15142;SDS011;7672;50.834;6.286;2023-05-08T10:27:15;23.27;;;21.05;;
15142;SDS011;7672;50.834;6.286;2023-05-08T10:29:52;21.30;;;19.48;;
15142;SDS011;7672;50.834;6.286;2023-05-08T10:32:22;20.80;;;19.10;;
15142;SDS011;7672;50.834;6.286;2023-05-08T10:34:55;19.98;;;18.27;;
15142;SDS011;7672;50.834;6.286;2023-05-08T10:37:25;18.38;;;16.88;;
15142;SDS011;7672;50.834;6.286;2023-05-08T10:39:56;21.35;;;19.52;;
15142;SDS011;7672;50.834;6.286;2023-05-08T10:42:24;21.60;;;19.70;;
15142;SDS011;7672;50.834;6.286;2023-05-08T10:44:53;20.70;;;18.90;;
15142;SDS011;7672;50.834;6.286;2023-05-08T10:47:29;21.10;;;19.30;;
15142;SDS011;7672;50.834;6.286;2023-05-08T10:53:12;19.67;;;17.83;;
15142;SDS011;7672;50.834;6.286;2023-05-08T10:55:49;20.15;;;18.35;;
15142;SDS011;7672;50.834;6.286;2023-05-08T11:01:09;20.23;;;17.55;;
15142;SDS011;7672;50.834;6.286;2023-05-08T11:03:39;19.75;;;17.83;;
15142;SDS011;7672;50.834;6.286;2023-05-08T11:06:09;20.05;;;16.90;;
15142;SDS011;7672;50.834;6.286;2023-05-08T11:09:11;17.67;;;15.93;;
15142;SDS011;7672;50.834;6.286;2023-05-08T11:11:30;12.88;;;10.70;;
15142;SDS011;7672;50.834;6.286;2023-05-08T11:19:19;14.65;;;13.30;;
15142;SDS011;7672;50.834;6.286;2023-05-08T11:24:39;16.35;;;14.85;;
15142;SDS011;7672;50.834;6.286;2023-05-08T11:27:30;15.23;;;13.88;;
15142;SDS011;7672;50.834;6.286;2023-05-08T11:43:25;14.70;;;13.30;;
15142;SDS011;7672;50.834;6.286;2023-05-08T11:45:59;15.52;;;14.13;;
15142;SDS011;7672;50.834;6.286;2023-05-08T11:48:33;16.98;;;15.40;;
15142;SDS011;7672;50.834;6.286;2023-05-08T11:51:01;16.50;;;14.90;;
15142;SDS011;7672;50.834;6.286;2023-05-08T11:53:29;15.38;;;13.98;;
15142;SDS011;7672;50.834;6.286;2023-05-08T11:55:57;15.20;;;13.90;;
15142;SDS011;7672;50.834;6.286;2023-05-08T11:58:25;14.57;;;13.38;;
15142;SDS011;7672;50.834;6.286;2023-05-08T12:00:52;15.60;;;14.20;;
15142;SDS011;7672;50.834;6.286;2023-05-08T12:03:21;15.75;;;14.35;;
15142;SDS011;7672;50.834;6.286;2023-05-08T12:05:57;13.18;;;12.07;;
15142;SDS011;7672;50.834;6.286;2023-05-08T12:08:25;13.43;;;12.23;;
15142;SDS011;7672;50.834;6.286;2023-05-08T12:10:53;16.13;;;13.40;;
15142;SDS011;7672;50.834;6.286;2023-05-08T12:13:25;13.05;;;11.48;;
15142;SDS011;7672;50.834;6.286;2023-05-08T12:15:56;14.77;;;13.37;;
15142;SDS011;7672;50.834;6.286;2023-05-08T12:18:26;13.95;;;12.70;;
15142;SDS011;7672;50.834;6.286;2023-05-08T12:20:56;13.93;;;12.60;;
15142;SDS011;7672;50.834;6.286;2023-05-08T12:23:25;13.55;;;12.25;;
15142;SDS011;7672;50.834;6.286;2023-05-08T12:25:57;12.68;;;11.57;;
15142;SDS011;7672;50.834;6.286;2023-05-08T12:28:26;13.68;;;12.48;;
15142;SDS011;7672;50.834;6.286;2023-05-08T12:30:53;14.10;;;12.80;;
15142;SDS011;7672;50.834;6.286;2023-05-08T12:33:21;15.65;;;14.10;;
15142;SDS011;7672;50.834;6.286;2023-05-08T12:35:50;17.80;;;16.10;;
15142;SDS011;7672;50.834;6.286;2023-05-08T12:38:17;19.58;;;17.77;;
15142;SDS011;7672;50.834;6.286;2023-05-08T12:40:45;18.98;;;17.23;;
15142;SDS011;7672;50.834;6.286;2023-05-08T12:43:20;20.60;;;18.65;;
15142;SDS011;7672;50.834;6.286;2023-05-08T12:45:57;20.58;;;18.58;;
15142;SDS011;7672;50.834;6.286;2023-05-08T12:48:25;19.88;;;18.10;;
15142;SDS011;7672;50.834;6.286;2023-05-08T12:50:52;19.27;;;17.55;;
15142;SDS011;7672;50.834;6.286;2023-05-08T12:53:20;19.70;;;17.60;;
15142;SDS011;7672;50.834;6.286;2023-05-08T12:55:51;17.38;;;15.88;;
15142;SDS011;7672;50.834;6.286;2023-05-08T12:58:25;18.05;;;16.55;;
15142;SDS011;7672;50.834;6.286;2023-05-08T13:01:09;18.90;;;17.15;;
15142;SDS011;7672;50.834;6.286;2023-05-08T13:03:39;19.13;;;17.33;;
15142;SDS011;7672;50.834;6.286;2023-05-08T13:06:09;16.77;;;15.27;;
15142;SDS011;7672;50.834;6.286;2023-05-08T13:08:51;18.08;;;16.45;;
15142;SDS011;7672;50.834;6.286;2023-05-08T13:11:29;17.13;;;15.52;;
15142;SDS011;7672;50.834;6.286;2023-05-08T13:13:58;15.35;;;13.77;;
15142;SDS011;7672;50.834;6.286;2023-05-08T13:16:26;14.88;;;13.48;;
15142;SDS011;7672;50.834;6.286;2023-05-08T13:18:53;16.73;;;15.15;;
15142;SDS011;7672;50.834;6.286;2023-05-08T13:21:20;16.17;;;14.77;;
15142;SDS011;7672;50.834;6.286;2023-05-08T13:23:47;19.27;;;15.05;;
15142;SDS011;7672;50.834;6.286;2023-05-08T13:26:14;14.88;;;13.38;;
15142;SDS011;7672;50.834;6.286;2023-05-08T13:28:41;16.95;;;15.15;;
15142;SDS011;7672;50.834;6.286;2023-05-08T13:31:08;14.23;;;12.95;;
15142;SDS011;7672;50.834;6.286;2023-05-08T13:33:35;14.93;;;13.65;;
15142;SDS011;7672;50.834;6.286;2023-05-08T13:36:03;15.73;;;14.38;;
15142;SDS011;7672;50.834;6.286;2023-05-08T13:38:30;16.40;;;14.95;;
15142;SDS011;7672;50.834;6.286;2023-05-08T13:40:57;16.15;;;14.55;;
15142;SDS011;7672;50.834;6.286;2023-05-08T13:43:24;14.65;;;13.25;;
15142;SDS011;7672;50.834;6.286;2023-05-08T13:45:51;15.02;;;13.82;;
15142;SDS011;7672;50.834;6.286;2023-05-08T13:48:19;14.38;;;12.95;;
15142;SDS011;7672;50.834;6.286;2023-05-08T13:50:46;16.17;;;14.77;;
15142;SDS011;7672;50.834;6.286;2023-05-08T13:53:13;16.25;;;14.75;;
15142;SDS011;7672;50.834;6.286;2023-05-08T13:55:40;16.73;;;15.27;;
15142;SDS011;7672;50.834;6.286;2023-05-08T13:58:07;16.65;;;14.73;;
15142;SDS011;7672;50.834;6.286;2023-05-08T14:00:34;14.75;;;13.43;;
15142;SDS011;7672;50.834;6.286;2023-05-08T14:03:01;15.18;;;13.73;;
15142;SDS011;7672;50.834;6.286;2023-05-08T14:05:29;14.20;;;12.80;;
15142;SDS011;7672;50.834;6.286;2023-05-08T14:07:56;14.45;;;13.10;;
15142;SDS011;7672;50.834;6.286;2023-05-08T14:10:23;13.10;;;12.05;;
15142;SDS011;7672;50.834;6.286;2023-05-08T14:12:50;13.57;;;12.27;;
15142;SDS011;7672;50.834;6.286;2023-05-08T14:15:17;14.23;;;12.82;;
15142;SDS011;7672;50.834;6.286;2023-05-08T14:17:44;13.25;;;12.05;;
15142;SDS011;7672;50.834;6.286;2023-05-08T14:20:11;12.40;;;11.40;;
15142;SDS011;7672;50.834;6.286;2023-05-08T14:22:38;14.40;;;13.20;;
15142;SDS011;7672;50.834;6.286;2023-05-08T14:25:05;12.27;;;11.27;;
15142;SDS011;7672;50.834;6.286;2023-05-08T14:27:33;11.57;;;10.57;;
15142;SDS011;7672;50.834;6.286;2023-05-08T14:30:00;11.77;;;10.70;;
15142;SDS011;7672;50.834;6.286;2023-05-08T14:32:30;10.55;;;9.52;;
15142;SDS011;7672;50.834;6.286;2023-05-08T14:34:57;11.15;;;10.25;;
15142;SDS011;7672;50.834;6.286;2023-05-08T14:37:24;12.60;;;9.98;;
15142;SDS011;7672;50.834;6.286;2023-05-08T14:39:51;9.90;;;9.10;;
15142;SDS011;7672;50.834;6.286;2023-05-08T14:42:19;10.90;;;9.90;;
15142;SDS011;7672;50.834;6.286;2023-05-08T14:44:49;10.25;;;9.38;;
15142;SDS011;7672;50.834;6.286;2023-05-08T14:47:16;8.82;;;8.13;;
15142;SDS011;7672;50.834;6.286;2023-05-08T14:49:44;8.15;;;7.35;;
15142;SDS011;7672;50.834;6.286;2023-05-08T14:52:10;8.52;;;7.85;;
15142;SDS011;7672;50.834;6.286;2023-05-08T14:54:37;8.38;;;7.57;;
15142;SDS011;7672;50.834;6.286;2023-05-08T14:57:05;8.15;;;7.45;;
15142;SDS011;7672;50.834;6.286;2023-05-08T14:59:32;6.10;;;5.63;;
15142;SDS011;7672;50.834;6.286;2023-05-08T15:01:59;7.15;;;6.55;;
15142;SDS011;7672;50.834;6.286;2023-05-08T15:04:26;6.47;;;5.97;;
15142;SDS011;7672;50.834;6.286;2023-05-08T15:06:53;7.00;;;6.45;;
15142;SDS011;7672;50.834;6.286;2023-05-08T15:09:21;7.68;;;7.05;;
15142;SDS011;7672;50.834;6.286;2023-05-08T15:11:48;7.88;;;6.97;;
15142;SDS011;7672;50.834;6.286;2023-05-08T15:14:15;7.25;;;6.57;;
15142;SDS011;7672;50.834;6.286;2023-05-08T15:16:42;8.23;;;7.45;;
15142;SDS011;7672;50.834;6.286;2023-05-08T15:19:09;8.60;;;7.78;;
15142;SDS011;7672;50.834;6.286;2023-05-08T15:21:36;8.57;;;7.72;;
15142;SDS011;7672;50.834;6.286;2023-05-08T15:24:03;8.02;;;7.22;;
15142;SDS011;7672;50.834;6.286;2023-05-08T15:26:31;7.93;;;7.18;;
15142;SDS011;7672;50.834;6.286;2023-05-08T15:28:58;7.53;;;6.82;;
15142;SDS011;7672;50.834;6.286;2023-05-08T15:31:25;7.53;;;6.78;;
15142;SDS011;7672;50.834;6.286;2023-05-08T15:33:52;6.07;;;5.57;;
15142;SDS011;7672;50.834;6.286;2023-05-08T15:36:19;7.93;;;6.18;;
15142;SDS011;7672;50.834;6.286;2023-05-08T15:38:46;5.80;;;5.28;;
15142;SDS011;7672;50.834;6.286;2023-05-08T15:41:14;6.93;;;5.25;;
15142;SDS011;7672;50.834;6.286;2023-05-08T15:43:41;5.28;;;4.78;;
15142;SDS011;7672;50.834;6.286;2023-05-08T15:46:10;6.18;;;5.55;;
15142;SDS011;7672;50.834;6.286;2023-05-08T15:48:37;6.35;;;5.60;;
15142;SDS011;7672;50.834;6.286;2023-05-08T15:51:04;8.15;;;5.63;;
15142;SDS011;7672;50.834;6.286;2023-05-08T15:53:32;6.07;;;5.57;;